Time;durP1;ratioP1;P1;durP2;ratioP2;P2;SDS_P1;SDS_P2;PMS_P1;PMS_P2;Temp;Humidity;BMP_temperature;BMP_pressure;BME280_temperature;BME280_humidity;BME280_pressure;Samples;Min_cycle;Max_cycle;Signal;HPM_P1;HPM_P2
2023/12/06 00:00:37;;;;;;;26.80;21.03;;;6.20;99.90;;;;;;5011568;28;20538;-79
2023/12/06 00:03:03;;;;;;;26.17;21.17;;;6.30;99.90;;;;;;5012443;28;20737;-80
2023/12/06 00:05:31;;;;;;;24.50;21.47;;;6.20;99.90;;;;;;5011773;28;20266;-79
2023/12/06 00:07:57;;;;;;;28.30;20.30;;;6.20;99.90;;;;;;5010342;28;20194;-82
2023/12/06 00:10:22;;;;;;;27.93;20.97;;;6.10;99.90;;;;;;5010296;28;20197;-80
2023/12/06 00:12:48;;;;;;;25.27;21.33;;;6.20;99.90;;;;;;5011134;28;20182;-80
2023/12/06 00:15:15;;;;;;;25.63;20.77;;;6.20;99.90;;;;;;5013876;28;20210;-80
2023/12/06 00:17:41;;;;;;;24.33;21.03;;;6.40;99.90;;;;;;5015147;28;20167;-81
2023/12/06 00:20:07;;;;;;;25.67;20.93;;;6.30;99.90;;;;;;5013880;28;20252;-80
2023/12/06 00:22:33;;;;;;;27.80;23.40;;;6.40;99.90;;;;;;5015211;28;20217;-80
2023/12/06 00:24:59;;;;;;;26.57;21.97;;;6.30;99.90;;;;;;5013744;28;20170;-80
2023/12/06 00:27:24;;;;;;;24.23;21.13;;;6.30;99.90;;;;;;5013535;28;20174;-80
2023/12/06 00:29:50;;;;;;;25.67;21.87;;;6.30;99.90;;;;;;5014427;28;20560;-80
2023/12/06 00:32:16;;;;;;;26.90;22.27;;;6.30;99.90;;;;;;5014230;28;20212;-80
2023/12/06 00:34:41;;;;;;;25.57;22.87;;;6.20;99.90;;;;;;5014510;28;20253;-80
2023/12/06 00:37:07;;;;;;;26.13;21.27;;;6.40;99.90;;;;;;5013119;28;20684;-80
2023/12/06 00:39:32;;;;;;;26.67;21.57;;;6.40;99.90;;;;;;5015077;28;20646;-80
2023/12/06 00:41:59;;;;;;;27.03;22.47;;;6.40;99.90;;;;;;5012661;28;20553;-80
2023/12/06 00:44:25;;;;;;;29.23;22.37;;;6.40;99.90;;;;;;5013369;28;20180;-80
2023/12/06 00:46:50;;;;;;;29.57;23.00;;;6.40;99.90;;;;;;5025056;28;20536;-80
2023/12/06 00:49:18;;;;;;;27.90;22.57;;;6.50;99.90;;;;;;5033381;28;20182;-80
2023/12/06 00:51:43;;;;;;;30.27;24.37;;;6.50;99.90;;;;;;5034288;28;20171;-81
2023/12/06 00:54:09;;;;;;;29.13;23.23;;;6.50;99.90;;;;;;5032379;28;20182;-79
2023/12/06 00:56:35;;;;;;;30.13;23.63;;;6.60;99.90;;;;;;5032542;28;20170;-79
2023/12/06 00:59:01;;;;;;;28.07;23.30;;;6.70;99.90;;;;;;5033291;28;20166;-80
2023/12/06 01:01:26;;;;;;;29.87;22.90;;;6.60;99.90;;;;;;5033277;28;20174;-79
2023/12/06 01:03:52;;;;;;;27.53;23.47;;;6.50;99.90;;;;;;5032448;28;20186;-81
2023/12/06 01:06:18;;;;;;;29.70;24.37;;;6.40;99.90;;;;;;5034499;28;20170;-81
2023/12/06 01:08:44;;;;;;;29.03;23.23;;;6.50;99.90;;;;;;5032796;28;20209;-81
2023/12/06 01:11:09;;;;;;;27.97;22.93;;;6.40;99.90;;;;;;5033210;28;20169;-82
2023/12/06 01:13:35;;;;;;;28.37;22.73;;;6.50;99.90;;;;;;5032163;28;20200;-80
2023/12/06 01:16:01;;;;;;;26.87;23.53;;;6.50;99.90;;;;;;5034520;28;20166;-80
2023/12/06 01:18:27;;;;;;;30.37;23.30;;;6.60;99.90;;;;;;5032590;28;20177;-80
2023/12/06 01:20:52;;;;;;;29.60;23.67;;;6.70;99.90;;;;;;5032631;28;20500;-81
2023/12/06 01:23:18;;;;;;;30.80;24.60;;;6.70;99.90;;;;;;5032902;28;20677;-80
2023/12/06 01:25:43;;;;;;;31.50;23.10;;;6.70;99.90;;;;;;5032738;28;20181;-80
2023/12/06 01:28:09;;;;;;;27.63;22.70;;;6.70;99.90;;;;;;5034283;28;20166;-80
2023/12/06 01:30:36;;;;;;;27.40;24.40;;;6.90;99.90;;;;;;5032719;28;20166;-80
2023/12/06 01:33:02;;;;;;;30.97;24.30;;;7.00;99.90;;;;;;5031273;28;20185;-81
2023/12/06 01:35:27;;;;;;;31.33;23.77;;;6.90;99.90;;;;;;5032694;28;20679;-80
2023/12/06 01:37:53;;;;;;;27.00;23.67;;;6.90;99.90;;;;;;5033698;28;20665;-79
2023/12/06 01:40:18;;;;;;;28.10;23.83;;;6.90;99.90;;;;;;5031921;28;20193;-79
2023/12/06 01:42:46;;;;;;;30.57;24.00;;;6.90;99.90;;;;;;5032317;28;20744;-79
2023/12/06 01:45:13;;;;;;;29.13;24.90;;;7.00;99.90;;;;;;5034167;28;20257;-80
2023/12/06 01:47:40;;;;;;;30.63;23.60;;;7.00;99.90;;;;;;5032995;28;20650;-79
2023/12/06 01:50:08;;;;;;;29.13;23.53;;;6.90;99.90;;;;;;5033813;28;20181;-79
2023/12/06 01:52:34;;;;;;;32.33;25.00;;;6.90;99.90;;;;;;5032357;28;20182;-80
2023/12/06 01:55:00;;;;;;;31.93;25.70;;;6.90;99.90;;;;;;5032404;28;20177;-80
2023/12/06 01:57:28;;;;;;;34.33;27.17;;;6.90;99.90;;;;;;5033519;28;20177;-79
2023/12/06 01:59:55;;;;;;;32.03;25.10;;;6.90;99.90;;;;;;5032220;28;20166;-79
2023/12/06 02:02:21;;;;;;;33.17;26.40;;;6.80;99.90;;;;;;5032088;28;20224;-79
2023/12/06 02:04:48;;;;;;;31.13;25.63;;;7.00;99.90;;;;;;5031908;28;20198;-80
2023/12/06 02:07:15;;;;;;;29.93;26.23;;;6.90;99.90;;;;;;5032507;28;20173;-80
2023/12/06 02:09:41;;;;;;;34.73;26.60;;;7.00;99.90;;;;;;5031537;28;20212;-80
2023/12/06 02:12:06;;;;;;;37.07;27.80;;;7.00;99.90;;;;;;5032042;28;20173;-79
2023/12/06 02:14:34;;;;;;;30.43;24.37;;;7.00;99.90;;;;;;5033065;28;20271;-80
2023/12/06 02:17:04;;;;;;;31.87;25.90;;;7.00;99.90;;;;;;5031892;28;20218;-80
2023/12/06 02:19:31;;;;;;;33.27;26.23;;;7.10;99.90;;;;;;5030822;28;20837;-80
2023/12/06 02:21:58;;;;;;;33.30;25.83;;;7.10;99.90;;;;;;5031085;28;20205;-80
2023/12/06 02:24:28;;;;;;;35.40;27.70;;;7.10;99.90;;;;;;5031429;28;20604;-80
2023/12/06 02:26:54;;;;;;;34.27;26.77;;;7.00;99.90;;;;;;5031419;28;20173;-80
2023/12/06 02:29:20;;;;;;;32.20;26.17;;;7.00;99.90;;;;;;5032870;28;20172;-80
2023/12/06 02:31:46;;;;;;;30.90;26.20;;;6.90;99.90;;;;;;5031028;28;20272;-79
2023/12/06 02:34:16;;;;;;;35.07;28.47;;;6.90;99.90;;;;;;5032706;28;20252;-80
2023/12/06 02:36:45;;;;;;;33.73;27.60;;;7.00;99.90;;;;;;5030627;28;20180;-80
2023/12/06 02:39:11;;;;;;;34.23;26.50;;;7.00;99.90;;;;;;5031717;28;20181;-80
2023/12/06 02:41:37;;;;;;;34.63;26.20;;;7.00;99.90;;;;;;5029916;28;20527;-79
2023/12/06 02:44:03;;;;;;;28.93;25.77;;;7.10;99.90;;;;;;5031872;28;20192;-81
2023/12/06 02:46:28;;;;;;;33.57;25.87;;;7.10;99.90;;;;;;5030682;28;20226;-81
2023/12/06 02:48:56;;;;;;;33.87;26.00;;;7.10;99.90;;;;;;5030856;28;20182;-79
2023/12/06 02:51:23;;;;;;;31.57;25.37;;;7.10;99.90;;;;;;5030435;28;20184;-81
2023/12/06 02:53:49;;;;;;;33.87;26.27;;;7.10;99.90;;;;;;5030024;28;20653;-79
2023/12/06 02:56:15;;;;;;;31.43;26.53;;;7.00;99.90;;;;;;5031001;28;20554;-81
2023/12/06 02:58:40;;;;;;;31.80;26.30;;;6.90;99.90;;;;;;5031156;28;20181;-79
2023/12/06 03:01:06;;;;;;;28.30;24.57;;;6.90;99.90;;;;;;5030444;28;20181;-79
2023/12/06 03:03:32;;;;;;;30.73;25.67;;;6.90;99.90;;;;;;5030918;28;20751;-80
2023/12/06 03:05:58;;;;;;;31.77;23.33;;;7.00;99.90;;;;;;5030354;28;20184;-79
2023/12/06 03:08:23;;;;;;;32.63;26.10;;;6.90;99.90;;;;;;5030908;28;20275;-79
2023/12/06 03:10:49;;;;;;;31.30;24.97;;;7.00;99.90;;;;;;5030886;28;20186;-80
2023/12/06 03:13:15;;;;;;;33.13;24.60;;;7.00;99.90;;;;;;5029887;28;20185;-80
2023/12/06 03:15:40;;;;;;;30.33;24.53;;;7.00;99.90;;;;;;5031750;28;20239;-80
2023/12/06 03:18:06;;;;;;;32.50;26.63;;;7.00;99.90;;;;;;5029838;28;20604;-80
2023/12/06 03:20:33;;;;;;;31.27;25.07;;;7.00;99.90;;;;;;5030606;28;20598;-80
2023/12/06 03:22:59;;;;;;;31.30;24.00;;;6.90;99.90;;;;;;5029530;28;20340;-80
2023/12/06 03:25:24;;;;;;;26.53;23.30;;;6.80;99.90;;;;;;5030649;28;20549;-80
2023/12/06 03:27:50;;;;;;;28.70;24.20;;;6.80;99.90;;;;;;5032247;28;20626;-80
2023/12/06 03:30:16;;;;;;;29.67;22.87;;;6.90;99.90;;;;;;5029380;28;20185;-80
2023/12/06 03:32:43;;;;;;;28.93;24.90;;;6.80;99.90;;;;;;5032118;28;20577;-81
2023/12/06 03:35:09;;;;;;;32.57;23.87;;;6.80;99.90;;;;;;5031043;28;20186;-80
2023/12/06 03:37:34;;;;;;;28.30;24.73;;;6.80;99.90;;;;;;5032200;28;20523;-80
2023/12/06 03:40:00;;;;;;;30.63;24.33;;;6.70;99.90;;;;;;5032205;28;20173;-79
2023/12/06 03:42:26;;;;;;;26.27;22.73;;;6.60;99.90;;;;;;5031829;28;20699;-80
2023/12/06 03:44:52;;;;;;;31.23;23.43;;;6.50;99.90;;;;;;5028759;28;20178;-80
2023/12/06 03:47:17;;;;;;;29.77;23.97;;;6.60;99.90;;;;;;5032109;28;20213;-80
2023/12/06 03:49:43;;;;;;;29.33;22.83;;;6.50;99.90;;;;;;5034591;28;20556;-80
2023/12/06 03:52:09;;;;;;;26.33;22.40;;;6.40;99.90;;;;;;5036063;28;20276;-80
2023/12/06 03:54:35;;;;;;;27.27;22.80;;;6.30;99.90;;;;;;5034347;28;20667;-80
2023/12/06 03:57:01;;;;;;;25.40;21.40;;;6.30;99.90;;;;;;5033400;28;20166;-80
2023/12/06 03:59:27;;;;;;;28.93;21.73;;;6.40;99.90;;;;;;5034420;28;20256;-80
2023/12/06 04:01:52;;;;;;;25.73;20.17;;;6.40;99.90;;;;;;5032984;28;20662;-79
2023/12/06 04:04:18;;;;;;;25.03;20.33;;;6.60;99.90;;;;;;5034495;28;20181;-80
2023/12/06 04:06:44;;;;;;;24.83;19.93;;;6.80;99.90;;;;;;5035363;28;20201;-79
2023/12/06 04:09:12;;;;;;;25.33;20.37;;;6.80;99.90;;;;;;5035225;28;20212;-80
2023/12/06 04:11:38;;;;;;;23.17;19.53;;;6.80;99.90;;;;;;5033918;28;20174;-80
2023/12/06 04:14:07;;;;;;;26.57;20.50;;;6.80;99.90;;;;;;5034211;28;20269;-80
2023/12/06 04:16:33;;;;;;;25.10;20.03;;;6.80;99.90;;;;;;5034163;28;20177;-79
2023/12/06 04:18:58;;;;;;;26.20;21.43;;;6.80;99.90;;;;;;5032279;28;20642;-80
2023/12/06 04:21:24;;;;;;;22.40;19.30;;;6.80;99.90;;;;;;5035599;28;20657;-79
2023/12/06 04:23:50;;;;;;;23.43;20.07;;;6.70;99.90;;;;;;5033679;28;20182;-79
2023/12/06 04:26:16;;;;;;;22.73;18.67;;;6.70;99.90;;;;;;5033314;28;20185;-79
2023/12/06 04:28:41;;;;;;;22.77;17.97;;;6.70;99.90;;;;;;5034757;28;20162;-80
2023/12/06 04:31:07;;;;;;;20.93;17.53;;;6.60;99.90;;;;;;5032758;28;20255;-81
2023/12/06 04:33:33;;;;;;;22.33;18.10;;;6.50;99.90;;;;;;5035228;28;20630;-80
2023/12/06 04:35:58;;;;;;;20.60;17.03;;;6.40;99.90;;;;;;5033976;28;20174;-81
2023/12/06 04:38:24;;;;;;;18.83;16.03;;;6.40;99.90;;;;;;5034521;28;20323;-80
2023/12/06 04:40:50;;;;;;;19.57;16.40;;;6.30;99.90;;;;;;5033123;28;20256;-80
2023/12/06 04:43:19;;;;;;;20.37;15.67;;;6.30;99.90;;;;;;5033482;28;20215;-79
2023/12/06 04:45:44;;;;;;;19.33;15.43;;;6.30;99.90;;;;;;5032502;28;20760;-81
2023/12/06 04:48:10;;;;;;;20.13;15.90;;;6.20;99.90;;;;;;5032711;28;20257;-82
2023/12/06 04:50:36;;;;;;;19.10;14.60;;;6.30;99.90;;;;;;5034959;28;20565;-79
2023/12/06 04:53:02;;;;;;;19.47;15.53;;;6.30;99.90;;;;;;5033476;28;20185;-80
2023/12/06 04:55:27;;;;;;;20.83;16.07;;;6.30;99.90;;;;;;5033404;28;20656;-81
2023/12/06 04:57:53;;;;;;;20.23;15.60;;;6.20;99.90;;;;;;5032909;28;20607;-80
2023/12/06 05:00:21;;;;;;;21.10;16.20;;;6.20;99.90;;;;;;5031136;28;20184;-80
2023/12/06 05:02:47;;;;;;;20.77;16.53;;;6.30;99.90;;;;;;5033123;28;20209;-80
2023/12/06 05:05:13;;;;;;;21.20;16.07;;;6.30;99.90;;;;;;5034826;28;20212;-80
2023/12/06 05:07:38;;;;;;;19.70;15.20;;;6.30;99.90;;;;;;5032272;28;20260;-80
2023/12/06 05:10:05;;;;;;;22.07;16.33;;;6.40;99.90;;;;;;5033333;28;20200;-80
2023/12/06 05:12:30;;;;;;;20.40;15.53;;;6.30;99.90;;;;;;5033697;28;20212;-80
2023/12/06 05:14:56;;;;;;;17.57;15.33;;;6.40;99.90;;;;;;5033204;28;20228;-81
2023/12/06 05:17:21;;;;;;;22.10;15.40;;;6.40;99.90;;;;;;5033761;28;20239;-79
2023/12/06 05:19:47;;;;;;;19.73;15.57;;;6.40;99.90;;;;;;5033433;28;20174;-80
2023/12/06 05:22:13;;;;;;;22.10;15.33;;;6.30;99.90;;;;;;5035033;28;20220;-80
2023/12/06 05:24:39;;;;;;;20.17;14.63;;;6.30;99.90;;;;;;5034508;28;20177;-80
2023/12/06 05:27:05;;;;;;;21.17;15.37;;;6.20;99.90;;;;;;5033320;28;20623;-81
2023/12/06 05:29:32;;;;;;;19.47;14.27;;;6.30;99.90;;;;;;5031431;28;20173;-80
2023/12/06 05:31:58;;;;;;;16.77;13.37;;;6.40;99.90;;;;;;5032863;28;20177;-80
2023/12/06 05:34:23;;;;;;;18.67;13.83;;;6.40;99.90;;;;;;5032476;28;20178;-80
2023/12/06 05:36:49;;;;;;;19.00;14.50;;;6.50;99.90;;;;;;5033199;28;20170;-79
2023/12/06 05:39:15;;;;;;;18.70;12.83;;;6.60;99.90;;;;;;5032714;28;20580;-79
2023/12/06 05:41:41;;;;;;;19.53;14.27;;;6.50;99.90;;;;;;5033639;28;20746;-80
2023/12/06 05:44:06;;;;;;;19.90;13.30;;;6.60;99.90;;;;;;5032205;28;20688;-79
2023/12/06 05:46:32;;;;;;;20.67;14.00;;;6.60;99.90;;;;;;5032442;28;20181;-79
2023/12/06 05:48:58;;;;;;;15.33;12.30;;;6.60;99.90;;;;;;5032036;28;20224;-80
2023/12/06 05:51:24;;;;;;;19.20;13.27;;;6.40;99.90;;;;;;5032161;28;20185;-79
2023/12/06 05:53:50;;;;;;;16.33;12.73;;;6.60;99.90;;;;;;5031477;28;20173;-80
2023/12/06 05:56:16;;;;;;;17.43;13.13;;;6.60;99.90;;;;;;5032532;28;20181;-79
2023/12/06 05:58:42;;;;;;;15.63;11.40;;;6.70;99.90;;;;;;5032030;28;20291;-80
2023/12/06 06:01:08;;;;;;;15.40;10.97;;;6.80;99.90;;;;;;5031285;28;20186;-80
2023/12/06 06:03:34;;;;;;;17.27;11.97;;;6.90;99.90;;;;;;5031565;28;20370;-80
2023/12/06 06:06:05;;;;;;;15.83;11.07;;;6.80;99.90;;;;;;5032009;28;20169;-80
2023/12/06 06:08:31;;;;;;;14.63;9.97;;;6.80;99.90;;;;;;5033242;28;20280;-80
2023/12/06 06:10:57;;;;;;;15.73;10.90;;;6.80;99.90;;;;;;5031050;28;20272;-79
2023/12/06 06:13:28;;;;;;;17.20;10.53;;;6.90;99.90;;;;;;5030764;28;20177;-81
2023/12/06 06:15:54;;;;;;;13.63;10.10;;;7.00;99.90;;;;;;5032728;28;20203;-79
2023/12/06 06:18:20;;;;;;;18.00;10.73;;;7.00;99.90;;;;;;5031841;28;20230;-81
2023/12/06 06:20:46;;;;;;;17.03;9.87;;;7.00;99.90;;;;;;5033009;28;20169;-80
2023/12/06 06:23:12;;;;;;;17.63;10.57;;;7.10;99.90;;;;;;5030878;28;20224;-80
2023/12/06 06:25:37;;;;;;;19.20;10.57;;;7.10;99.90;;;;;;5030493;28;20579;-80
2023/12/06 06:28:03;;;;;;;13.93;10.67;;;7.10;99.90;;;;;;5030308;28;20185;-80
2023/12/06 06:30:29;;;;;;;15.63;11.20;;;7.20;99.90;;;;;;5030799;28;20177;-80
2023/12/06 06:32:55;;;;;;;15.37;11.33;;;7.30;99.90;;;;;;5033057;28;20174;-80
2023/12/06 06:35:21;;;;;;;16.37;11.17;;;7.30;99.90;;;;;;5031222;28;20231;-80
2023/12/06 06:37:47;;;;;;;15.67;11.57;;;7.30;99.90;;;;;;5029861;28;20186;-80
2023/12/06 06:40:14;;;;;;;16.53;11.77;;;7.10;99.90;;;;;;5032459;28;20174;-79
2023/12/06 06:42:40;;;;;;;21.87;12.03;;;7.00;99.90;;;;;;5030485;28;20228;-80
2023/12/06 06:45:08;;;;;;;15.37;10.47;;;6.90;99.90;;;;;;5030399;28;20184;-80
2023/12/06 06:47:34;;;;;;;17.67;10.30;;;6.90;99.90;;;;;;5031072;28;20178;-81
2023/12/06 06:50:00;;;;;;;11.23;9.10;;;6.90;99.90;;;;;;5024908;28;20178;-80
2023/12/06 06:52:26;;;;;;;13.37;8.97;;;6.80;99.90;;;;;;5029916;28;20240;-80
2023/12/06 06:54:53;;;;;;;13.67;9.13;;;6.90;99.90;;;;;;5030274;28;20605;-82
2023/12/06 06:57:18;;;;;;;12.30;9.03;;;7.00;99.90;;;;;;5030346;28;20170;-80
2023/12/06 06:59:44;;;;;;;18.07;10.30;;;7.00;99.90;;;;;;5031091;28;20617;-80
2023/12/06 07:02:10;;;;;;;15.93;9.70;;;7.00;99.90;;;;;;5030567;28;20568;-80
2023/12/06 07:04:36;;;;;;;14.77;9.67;;;7.00;99.90;;;;;;5029817;28;20408;-80
2023/12/06 07:07:02;;;;;;;18.40;11.73;;;6.90;99.90;;;;;;5030635;28;20178;-82
2023/12/06 07:09:28;;;;;;;14.57;10.53;;;6.80;99.90;;;;;;5031861;28;20216;-80
2023/12/06 07:11:53;;;;;;;14.93;10.57;;;6.80;99.90;;;;;;5029947;28;20645;-79
2023/12/06 07:14:20;;;;;;;16.83;11.37;;;6.80;99.90;;;;;;5012509;28;20174;-81
2023/12/06 07:16:46;;;;;;;17.73;10.60;;;6.70;99.90;;;;;;5010854;28;20182;-79
2023/12/06 07:19:13;;;;;;;15.23;11.00;;;6.60;99.90;;;;;;5011754;28;20166;-81
2023/12/06 07:21:39;;;;;;;15.30;10.70;;;6.60;99.90;;;;;;5016693;28;20173;-81
2023/12/06 07:24:06;;;;;;;15.63;10.23;;;6.70;99.90;;;;;;5034354;28;20645;-78
2023/12/06 07:26:32;;;;;;;14.13;9.17;;;6.60;99.90;;;;;;5031733;28;20174;-80
2023/12/06 07:28:58;;;;;;;11.57;9.50;;;6.50;99.90;;;;;;5032726;28;20198;-78
2023/12/06 07:31:23;;;;;;;15.73;9.93;;;6.60;99.90;;;;;;5033552;28;20616;-80
2023/12/06 07:33:50;;;;;;;14.57;10.03;;;6.50;99.90;;;;;;5031120;28;20189;-79
2023/12/06 07:36:16;;;;;;;19.40;11.00;;;6.50;99.90;;;;;;5020810;28;20183;-79
2023/12/06 07:38:42;;;;;;;16.20;9.93;;;6.40;99.90;;;;;;5015727;28;20661;-80
2023/12/06 07:41:09;;;;;;;19.50;11.43;;;6.40;99.90;;;;;;5033926;28;20165;-79
2023/12/06 07:43:34;;;;;;;18.63;11.10;;;6.40;99.90;;;;;;5035985;28;20207;-80
2023/12/06 07:46:02;;;;;;;18.00;10.93;;;6.50;99.90;;;;;;5033677;28;20170;-81
2023/12/06 07:48:28;;;;;;;16.70;10.60;;;6.50;99.90;;;;;;5029096;28;20166;-81
2023/12/06 07:50:54;;;;;;;15.83;10.33;;;6.50;99.90;;;;;;5034114;28;20617;-82
2023/12/06 07:53:20;;;;;;;15.73;9.80;;;6.40;99.90;;;;;;5033498;28;20178;-81
2023/12/06 07:55:46;;;;;;;19.10;11.13;;;6.30;99.90;;;;;;5028782;28;20807;-82
2023/12/06 07:58:11;;;;;;;18.03;10.40;;;6.30;99.90;;;;;;5030867;28;20173;-82
2023/12/06 08:00:37;;;;;;;19.57;10.40;;;6.50;99.90;;;;;;5034491;28;20173;-82
2023/12/06 08:03:04;;;;;;;14.40;10.27;;;6.50;99.90;;;;;;5031934;28;20520;-82
2023/12/06 08:05:29;;;;;;;17.20;10.73;;;6.60;99.90;;;;;;5033482;28;20181;-82
2023/12/06 08:07:55;;;;;;;16.13;10.47;;;6.60;99.90;;;;;;5033612;28;20197;-83
2023/12/06 08:10:26;;;;;;;17.57;9.83;;;6.70;99.90;;;;;;5034184;28;20189;-83
2023/12/06 08:12:54;;;;;;;13.57;9.90;;;6.80;99.90;;;;;;5021943;28;20222;-82
2023/12/06 08:15:21;;;;;;;17.63;10.83;;;6.90;99.90;;;;;;5023599;28;20192;-82
2023/12/06 08:17:46;;;;;;;14.13;9.37;;;7.00;99.90;;;;;;5022409;28;20672;-82
2023/12/06 08:20:13;;;;;;;13.07;9.63;;;7.20;99.90;;;;;;5029156;28;20177;-83
2023/12/06 08:22:39;;;;;;;13.00;9.70;;;7.10;99.90;;;;;;5032689;28;20372;-83
2023/12/06 08:25:06;;;;;;;15.77;9.37;;;7.10;99.90;;;;;;5033343;28;20178;-82
2023/12/06 08:27:34;;;;;;;14.30;8.73;;;7.20;99.90;;;;;;5027144;28;20174;-84
2023/12/06 08:30:00;;;;;;;12.10;8.90;;;7.20;99.90;;;;;;5015357;28;20167;-82
2023/12/06 08:32:26;;;;;;;12.53;8.90;;;7.10;99.90;;;;;;5025645;28;20177;-82
2023/12/06 08:34:53;;;;;;;13.03;8.00;;;7.10;99.90;;;;;;5032994;28;20192;-83
2023/12/06 08:37:19;;;;;;;12.80;8.90;;;7.10;99.90;;;;;;5024661;28;20202;-83
2023/12/06 08:39:45;;;;;;;16.23;9.27;;;7.10;99.90;;;;;;5014858;28;20575;-83
2023/12/06 08:42:14;;;;;;;18.30;10.63;;;7.20;99.90;;;;;;5013944;28;20202;-83
2023/12/06 08:44:43;;;;;;;16.07;9.00;;;7.20;99.90;;;;;;5013722;28;20174;-82
2023/12/06 08:47:10;;;;;;;15.57;10.17;;;7.20;99.90;;;;;;5014006;28;20174;-83
2023/12/06 08:49:37;;;;;;;15.00;10.20;;;7.10;99.90;;;;;;5013514;28;20175;-83
2023/12/06 08:52:04;;;;;;;20.53;14.37;;;7.00;99.90;;;;;;5023440;28;20174;-83
2023/12/06 08:54:29;;;;;;;17.57;11.23;;;7.00;99.90;;;;;;5032385;28;20520;-81
2023/12/06 08:56:55;;;;;;;12.63;8.07;;;7.00;99.90;;;;;;5033132;28;20181;-82
2023/12/06 08:59:21;;;;;;;13.93;8.63;;;6.90;99.90;;;;;;5033728;28;20180;-81
2023/12/06 09:01:47;;;;;;;13.97;8.50;;;7.00;99.90;;;;;;5053137;28;20195;-82
2023/12/06 09:04:12;;;;;;;13.10;8.63;;;7.10;99.90;;;;;;5040573;28;20641;-81
2023/12/06 09:06:38;;;;;;;11.43;9.00;;;7.10;99.90;;;;;;5031852;28;20541;-83
2023/12/06 09:09:05;;;;;;;15.67;8.67;;;7.10;99.90;;;;;;5031491;28;20258;-81
2023/12/06 09:11:31;;;;;;;12.17;7.97;;;7.10;99.90;;;;;;5025435;28;20174;-84
2023/12/06 09:13:57;;;;;;;11.37;7.30;;;7.00;99.90;;;;;;5013199;28;20167;-83
2023/12/06 09:16:23;;;;;;;13.67;8.13;;;7.00;99.90;;;;;;5013461;28;20228;-81
2023/12/06 09:18:48;;;;;;;10.17;7.73;;;7.10;99.90;;;;;;5013958;28;20299;-81
2023/12/06 09:21:14;;;;;;;14.10;8.70;;;7.10;99.90;;;;;;5013893;28;20552;-82
2023/12/06 09:23:40;;;;;;;12.03;8.00;;;7.20;99.90;;;;;;5014097;28;20611;-82
2023/12/06 09:26:09;;;;;;;10.13;7.00;;;7.40;99.90;;;;;;5012723;28;20262;-83
2023/12/06 09:28:35;;;;;;;14.10;8.17;;;7.40;99.90;;;;;;5012728;28;20226;-83
2023/12/06 09:31:01;;;;;;;11.27;7.63;;;7.50;99.90;;;;;;5020569;28;20174;-82
2023/12/06 09:33:27;;;;;;;13.10;7.10;;;7.50;99.90;;;;;;5034298;28;20216;-84
2023/12/06 09:35:53;;;;;;;9.80;6.87;;;7.60;99.90;;;;;;5038739;28;20537;-82
2023/12/06 09:38:18;;;;;;;10.17;7.20;;;7.90;99.90;;;;;;5036841;28;20669;-82
2023/12/06 09:40:44;;;;;;;10.87;7.13;;;8.00;99.10;;;;;;5038061;28;20543;-81
2023/12/06 09:43:10;;;;;;;13.30;8.30;;;8.10;97.30;;;;;;5032965;28;20738;-82
2023/12/06 09:45:37;;;;;;;12.63;7.40;;;8.00;96.10;;;;;;5049581;28;20180;-82
2023/12/06 09:48:03;;;;;;;10.80;6.40;;;8.10;94.50;;;;;;5033176;28;20187;-81
2023/12/06 09:50:29;;;;;;;13.43;7.03;;;7.90;92.00;;;;;;5011701;28;20181;-83
2023/12/06 09:52:55;;;;;;;15.40;8.70;;;7.80;90.50;;;;;;5013762;28;20724;-82
2023/12/06 09:55:23;;;;;;;15.03;9.93;;;7.80;93.90;;;;;;5030352;28;20185;-81
2023/12/06 09:57:53;;;;;;;14.47;10.13;;;7.90;96.00;;;;;;5032090;28;20201;-82
2023/12/06 10:00:19;;;;;;;11.83;8.67;;;8.10;96.70;;;;;;5031930;28;20196;-79
2023/12/06 10:02:48;;;;;;;13.47;8.60;;;8.30;97.40;;;;;;5031203;28;20240;-78
2023/12/06 10:05:14;;;;;;;15.03;9.07;;;8.50;96.10;;;;;;5030925;28;20177;-83
2023/12/06 10:07:40;;;;;;;21.30;12.63;;;8.70;96.00;;;;;;5033621;28;20692;-84
2023/12/06 10:10:14;;;;;;;13.63;8.73;;;8.60;94.60;;;;;;5020157;28;20182;-82
2023/12/06 10:12:47;;;;;;;12.23;7.50;;;8.50;95.00;;;;;;5031385;28;20173;-83
2023/12/06 10:15:15;;;;;;;15.57;8.23;;;8.40;90.10;;;;;;5017608;28;20254;-80
2023/12/06 10:17:41;;;;;;;11.93;8.20;;;8.40;88.40;;;;;;5039185;28;20184;-81
2023/12/06 10:20:08;;;;;;;14.87;8.17;;;8.30;87.70;;;;;;5042753;28;20178;-81
2023/12/06 10:22:34;;;;;;;14.93;8.30;;;8.10;90.90;;;;;;5031044;28;20213;-81
2023/12/06 10:25:00;;;;;;;13.10;8.50;;;8.00;94.60;;;;;;5033744;28;20186;-83
2023/12/06 10:27:32;;;;;;;9.97;7.93;;;8.00;95.90;;;;;;5013143;28;20539;-81
2023/12/06 10:29:59;;;;;;;11.77;7.53;;;8.00;97.10;;;;;;5013096;28;20235;-82
2023/12/06 10:32:25;;;;;;;14.63;8.53;;;8.10;97.10;;;;;;5012620;28;20630;-81
2023/12/06 10:34:53;;;;;;;11.33;9.07;;;8.10;95.80;;;;;;5011233;28;20174;-80
2023/12/06 10:37:21;;;;;;;11.47;8.60;;;8.00;96.80;;;;;;5011542;28;20583;-80
2023/12/06 10:39:54;;;;;;;12.40;8.10;;;8.00;98.40;;;;;;5011390;28;20174;-82
2023/12/06 10:42:26;;;;;;;16.27;8.70;;;8.10;97.70;;;;;;5011307;28;20201;-82
2023/12/06 10:44:54;;;;;;;12.50;8.23;;;8.10;95.90;;;;;;5011465;28;20181;-83
2023/12/06 10:47:20;;;;;;;10.73;8.30;;;8.20;96.30;;;;;;5011054;28;20197;-83
2023/12/06 10:49:49;;;;;;;12.03;8.73;;;8.10;96.30;;;;;;5010932;28;20186;-82
2023/12/06 10:52:18;;;;;;;11.23;7.53;;;8.20;96.70;;;;;;5011337;28;20277;-82
2023/12/06 10:54:46;;;;;;;11.33;8.23;;;8.20;96.50;;;;;;5011322;28;20528;-81
2023/12/06 10:57:12;;;;;;;11.40;7.90;;;8.20;95.30;;;;;;5012174;28;20182;-82
2023/12/06 10:59:38;;;;;;;14.43;8.00;;;8.20;95.70;;;;;;5011286;28;20205;-83
2023/12/06 11:02:04;;;;;;;12.40;7.50;;;8.10;94.20;;;;;;5010718;28;20201;-81
2023/12/06 11:04:36;;;;;;;14.63;8.77;;;7.90;95.20;;;;;;5011226;28;20516;-83
2023/12/06 11:07:33;;;;;;;11.83;7.93;;;8.10;95.30;;;;;;5012000;28;20234;-81
2023/12/06 11:10:32;;;;;;;9.73;7.20;;;8.20;91.40;;;;;;5010923;28;20554;-82
2023/12/06 11:13:35;;;;;;;9.87;7.67;;;8.20;90.70;;;;;;5011095;28;20213;-81
2023/12/06 11:16:35;;;;;;;9.13;7.47;;;8.20;91.10;;;;;;5011144;28;20182;-82
2023/12/06 11:19:02;;;;;;;12.00;7.50;;;8.10;92.60;;;;;;5010929;28;20170;-81
2023/12/06 11:21:28;;;;;;;11.57;8.27;;;7.90;94.30;;;;;;5011307;28;20185;-82
2023/12/06 11:23:55;;;;;;;12.93;8.33;;;8.00;95.50;;;;;;5012124;28;20292;-82
2023/12/06 11:26:23;;;;;;;14.97;8.10;;;8.00;96.20;;;;;;5012560;28;20196;-80
2023/12/06 11:28:53;;;;;;;10.40;6.23;;;8.20;95.80;;;;;;5010914;28;20181;-82
2023/12/06 11:31:19;;;;;;;10.90;7.30;;;8.30;92.00;;;;;;5011653;28;20203;-81
2023/12/06 11:33:59;;;;;;;10.27;6.83;;;8.30;90.00;;;;;;5011845;28;20254;-81
2023/12/06 11:36:24;;;;;;;14.63;8.77;;;8.40;88.20;;;;;;5010864;28;20206;-81
2023/12/06 11:38:51;;;;;;;11.53;7.30;;;8.30;90.40;;;;;;5010608;28;20178;-81
2023/12/06 11:41:17;;;;;;;13.87;7.47;;;8.40;92.00;;;;;;5010830;28;20183;-82
2023/12/06 11:43:50;;;;;;;11.10;8.27;;;8.40;92.10;;;;;;5010903;28;20364;-81
2023/12/06 11:46:17;;;;;;;13.33;8.23;;;8.40;94.00;;;;;;5010483;28;20185;-81
2023/12/06 11:48:48;;;;;;;13.37;7.97;;;8.40;94.30;;;;;;5010728;28;20270;-83
2023/12/06 11:51:22;;;;;;;12.57;6.70;;;8.40;94.70;;;;;;5010875;28;20228;-82
2023/12/06 11:53:52;;;;;;;16.93;8.30;;;8.50;95.70;;;;;;5010190;28;20235;-81
2023/12/06 11:56:21;;;;;;;9.80;6.67;;;8.60;94.40;;;;;;5010377;28;20669;-81
2023/12/06 11:58:49;;;;;;;8.10;6.37;;;8.70;92.20;;;;;;5010523;28;20620;-81
2023/12/06 12:01:16;;;;;;;10.50;6.40;;;8.80;89.10;;;;;;5010484;28;20232;-81
2023/12/06 12:03:44;;;;;;;11.90;6.60;;;8.80;87.70;;;;;;5010449;28;20304;-81
2023/12/06 12:06:10;;;;;;;10.67;6.90;;;8.80;86.20;;;;;;5027230;28;20177;-82
2023/12/06 12:08:36;;;;;;;15.03;6.83;;;8.90;84.50;;;;;;5029870;28;20570;-82
2023/12/06 12:11:02;;;;;;;12.47;6.60;;;8.90;78.40;;;;;;5033737;28;20184;-82
2023/12/06 12:13:28;;;;;;;14.60;7.77;;;8.90;72.10;;;;;;5023324;28;20193;-85
2023/12/06 12:16:04;;;;;;;11.30;6.47;;;9.00;70.80;;;;;;5027140;28;20661;-81
2023/12/06 12:18:29;;;;;;;11.17;7.27;;;8.90;73.60;;;;;;5030766;28;20189;-82
2023/12/06 12:20:58;;;;;;;11.47;6.57;;;8.70;77.40;;;;;;5029576;28;20208;-83
2023/12/06 12:23:25;;;;;;;14.03;6.03;;;8.60;80.60;;;;;;5029340;28;20572;-81
2023/12/06 12:25:51;;;;;;;9.13;6.00;;;8.40;82.90;;;;;;5030101;28;20556;-81
2023/12/06 12:28:18;;;;;;;9.00;6.73;;;8.40;86.60;;;;;;5029771;28;20174;-82
2023/12/06 12:30:50;;;;;;;13.17;7.23;;;8.30;87.40;;;;;;5031118;28;20240;-82
2023/12/06 12:33:17;;;;;;;12.47;6.43;;;8.40;84.50;;;;;;5029149;28;20224;-82
2023/12/06 12:35:44;;;;;;;10.40;7.03;;;8.30;88.40;;;;;;5029751;28;20170;-81
2023/12/06 12:38:10;;;;;;;10.27;7.47;;;8.30;90.80;;;;;;5031220;28;20610;-81